createdAt,value
2022-11-17T00:00:33.369Z,7.60
2022-11-17T00:03:00.238Z,7.70
2022-11-17T00:05:27.068Z,7.60
2022-11-17T00:07:53.894Z,7.60
2022-11-17T00:10:20.778Z,7.80
2022-11-17T00:13:06.184Z,7.60
2022-11-17T00:15:33.165Z,7.70
2022-11-17T00:18:18.646Z,7.60
2022-11-17T00:21:03.944Z,7.60
2022-11-17T00:23:47.023Z,7.50
2022-11-17T00:26:19.768Z,7.50
2022-11-17T00:28:46.669Z,7.50
2022-11-17T00:31:32.930Z,7.50
2022-11-17T00:34:05.574Z,7.50
2022-11-17T00:36:44.025Z,7.30
2022-11-17T00:39:12.385Z,7.50
2022-11-17T00:41:39.222Z,7.50
2022-11-17T00:44:07.084Z,7.50
2022-11-17T00:46:35.215Z,7.50
2022-11-17T00:49:02.107Z,7.70
2022-11-17T00:51:29.010Z,7.50
2022-11-17T00:53:56.176Z,7.50
2022-11-17T00:56:23.543Z,7.50
2022-11-17T00:58:50.463Z,7.40
2022-11-17T01:01:17.780Z,7.40
2022-11-17T01:03:44.762Z,7.40
2022-11-17T01:06:14.674Z,7.60
2022-11-17T01:08:42.337Z,7.40
2022-11-17T01:11:19.794Z,7.40
2022-11-17T01:13:47.912Z,7.40
2022-11-17T01:16:17.586Z,7.70
2022-11-17T01:18:46.442Z,7.40
2022-11-17T01:21:16.773Z,7.40
2022-11-17T01:23:45.550Z,7.40
2022-11-17T01:26:15.193Z,7.40
2022-11-17T01:28:42.916Z,7.40
2022-11-17T01:31:16.014Z,7.60
2022-11-17T01:33:43.603Z,7.40
2022-11-17T01:36:23.816Z,7.30
2022-11-17T01:38:50.909Z,7.30
2022-11-17T01:41:20.925Z,7.30
2022-11-17T01:43:53.724Z,7.30
2022-11-17T01:46:34.086Z,7.30
2022-11-17T01:49:18.980Z,7.30
2022-11-17T01:51:53.192Z,7.30
2022-11-17T01:54:23.470Z,7.20
2022-11-17T01:56:55.352Z,7.30
2022-11-17T01:59:30.742Z,7.30
2022-11-17T02:01:58.638Z,7.30
2022-11-17T02:04:29.868Z,7.30
2022-11-17T02:07:14.303Z,7.30
2022-11-17T02:09:42.128Z,7.20
2022-11-17T02:12:12.436Z,7.20
2022-11-17T02:14:39.909Z,7.20
2022-11-17T02:17:13.715Z,7.20
2022-11-17T02:19:42.943Z,7.20
2022-11-17T02:22:28.381Z,7.10
2022-11-17T02:25:13.239Z,7.10
2022-11-17T02:28:08.837Z,7.10
2022-11-17T02:31:05.614Z,7.10
2022-11-17T02:34:00.048Z,7.10
2022-11-17T02:36:35.375Z,7.10
2022-11-17T02:39:13.978Z,7.10
2022-11-17T02:41:52.099Z,7.10
2022-11-17T02:44:37.143Z,7.20
2022-11-17T02:47:27.601Z,7.20
2022-11-17T02:50:00.770Z,7.40
2022-11-17T02:52:30.026Z,7.60
2022-11-17T02:55:06.243Z,7.60
2022-11-17T02:57:34.765Z,7.30
2022-11-17T03:00:17.012Z,7.20
2022-11-17T03:03:00.801Z,7.20
2022-11-17T03:06:15.058Z,7.20
2022-11-17T03:09:08.086Z,7.20
2022-11-17T03:11:56.682Z,7.20
2022-11-17T03:14:39.572Z,7.20
2022-11-17T03:17:22.232Z,7.40
2022-11-17T03:20:02.006Z,7.30
2022-11-17T03:22:43.182Z,7.30
2022-11-17T03:25:15.675Z,7.40
2022-11-17T03:27:49.180Z,7.30
2022-11-17T03:30:18.589Z,7.40
2022-11-17T03:32:52.190Z,7.30
2022-11-17T03:35:23.221Z,7.40
2022-11-17T03:37:56.038Z,7.30
2022-11-17T03:40:27.485Z,7.30
2022-11-17T03:42:59.985Z,7.30
2022-11-17T03:45:30.713Z,7.60
2022-11-17T03:48:14.410Z,7.30
2022-11-17T03:51:06.583Z,7.30
2022-11-17T03:53:35.644Z,7.30
2022-11-17T03:56:05.529Z,7.50
2022-11-17T03:58:35.162Z,7.30
2022-11-17T04:01:05.505Z,7.30
2022-11-17T04:03:34.354Z,7.30
2022-11-17T04:06:01.675Z,7.30
2022-11-17T04:08:30.809Z,7.20
2022-11-17T04:11:16.931Z,7.20
2022-11-17T04:14:02.500Z,7.20
2022-11-17T04:16:29.329Z,7.20
2022-11-17T04:18:58.889Z,7.20
2022-11-17T04:21:26.314Z,7.20
2022-11-17T04:23:53.304Z,7.10
2022-11-17T04:26:38.495Z,7.10
2022-11-17T04:29:05.417Z,7.10
2022-11-17T04:31:32.381Z,7.10
2022-11-17T04:34:01.468Z,7.10
2022-11-17T04:36:30.988Z,7.10
2022-11-17T04:38:59.344Z,7.10
2022-11-17T04:41:46.769Z,7.00
2022-11-17T04:44:16.252Z,7.00
2022-11-17T04:46:45.907Z,6.70
2022-11-17T04:49:14.565Z,7.30
2022-11-17T04:51:41.903Z,6.90
2022-11-17T04:54:27.744Z,6.90
2022-11-17T04:56:55.425Z,6.90
2022-11-17T04:59:22.461Z,6.90
2022-11-17T05:01:49.435Z,7.00
2022-11-17T05:04:37.548Z,7.20
2022-11-17T05:07:04.533Z,6.90
2022-11-17T05:09:31.673Z,6.80
2022-11-17T05:12:16.959Z,6.80
2022-11-17T05:14:43.879Z,6.80
2022-11-17T05:17:11.800Z,6.80
2022-11-17T05:19:47.352Z,6.80
2022-11-17T05:22:35.629Z,6.80
2022-11-17T05:25:03.449Z,6.80
2022-11-17T05:27:30.458Z,6.80
2022-11-17T05:29:57.333Z,6.80
2022-11-17T05:32:24.203Z,6.80
2022-11-17T05:34:51.229Z,6.80
2022-11-17T05:37:18.165Z,6.80
2022-11-17T05:39:45.031Z,6.80
2022-11-17T05:42:11.893Z,7.00
2022-11-17T05:44:40.131Z,6.70
2022-11-17T05:47:07.290Z,6.80
2022-11-17T05:49:34.128Z,6.80
2022-11-17T05:52:01.003Z,6.80
2022-11-17T05:54:27.923Z,7.20
2022-11-17T05:57:06.007Z,6.90
2022-11-17T05:59:38.929Z,6.80
2022-11-17T06:02:14.836Z,6.80
2022-11-17T06:04:42.184Z,6.70
2022-11-17T06:07:10.369Z,6.70
2022-11-17T06:09:41.279Z,6.70
2022-11-17T06:12:08.605Z,6.70
2022-11-17T06:14:37.555Z,6.70
2022-11-17T06:17:11.271Z,6.70
2022-11-17T06:19:44.278Z,6.90
2022-11-17T06:22:13.151Z,6.90
2022-11-17T06:24:43.135Z,6.70
2022-11-17T06:27:12.172Z,7.00
2022-11-17T06:29:43.921Z,6.70
2022-11-17T06:32:13.831Z,6.70
2022-11-17T06:34:42.083Z,6.70
2022-11-17T06:37:09.000Z,6.60
2022-11-17T06:39:36.106Z,6.60
2022-11-17T06:42:03.025Z,6.60
2022-11-17T06:44:29.953Z,6.60
2022-11-17T06:46:56.854Z,6.50
2022-11-17T06:49:23.681Z,6.50
2022-11-17T06:51:50.618Z,6.50
2022-11-17T06:54:17.585Z,6.60
2022-11-17T06:56:45.041Z,6.50
2022-11-17T06:59:12.039Z,6.90
2022-11-17T07:01:38.960Z,6.60
2022-11-17T07:04:06.749Z,6.60
2022-11-17T07:06:36.857Z,6.70
2022-11-17T07:09:04.984Z,6.70
2022-11-17T07:11:36.172Z,6.50
2022-11-17T07:14:03.524Z,6.40
2022-11-17T07:16:31.038Z,6.50
2022-11-17T07:18:59.282Z,6.50
2022-11-17T07:21:26.585Z,6.70
2022-11-17T07:23:53.598Z,6.50
2022-11-17T07:26:20.603Z,6.50
2022-11-17T07:28:47.573Z,6.40
2022-11-17T07:31:14.487Z,6.40
2022-11-17T07:33:41.336Z,6.30
2022-11-17T07:36:10.984Z,6.30
2022-11-17T07:38:39.675Z,6.30
2022-11-17T07:41:08.921Z,6.40
2022-11-17T07:43:36.946Z,6.30
2022-11-17T07:46:11.108Z,6.20
2022-11-17T07:48:38.695Z,6.20
2022-11-17T07:51:06.657Z,6.20
2022-11-17T07:53:35.194Z,6.10
2022-11-17T07:56:10.376Z,6.00
2022-11-17T07:58:38.123Z,6.00
2022-11-17T08:01:10.844Z,6.20
2022-11-17T08:03:38.140Z,6.10
2022-11-17T08:06:06.289Z,6.20
2022-11-17T08:08:34.007Z,5.90
2022-11-17T08:11:06.128Z,5.80
2022-11-17T08:13:33.695Z,5.90
2022-11-17T08:16:01.173Z,6.10
2022-11-17T08:18:29.255Z,5.80
2022-11-17T08:21:07.219Z,5.90
2022-11-17T08:23:34.814Z,5.40
2022-11-17T08:26:03.551Z,6.00
2022-11-17T08:28:30.971Z,5.80
2022-11-17T08:31:01.292Z,6.10
2022-11-17T08:33:28.576Z,5.80
2022-11-17T08:36:00.187Z,5.80
2022-11-17T08:38:29.301Z,5.90
2022-11-17T08:41:02.125Z,5.80
2022-11-17T08:43:29.674Z,5.80
2022-11-17T08:45:57.206Z,6.00
2022-11-17T08:48:25.269Z,5.90
2022-11-17T08:50:52.728Z,5.90
2022-11-17T08:53:21.989Z,5.90
2022-11-17T08:55:49.502Z,5.90
2022-11-17T08:58:16.806Z,5.90
2022-11-17T09:00:45.720Z,5.90
2022-11-17T09:03:13.273Z,5.90
2022-11-17T09:05:42.355Z,5.90
2022-11-17T09:08:43.353Z,5.90
2022-11-17T09:10:56.654Z,5.90
2022-11-17T09:13:23.595Z,6.10
2022-11-17T09:15:50.498Z,6.00
2022-11-17T09:18:17.407Z,6.00
2022-11-17T09:20:45.939Z,6.00
2022-11-17T09:23:13.289Z,6.10
2022-11-17T09:25:40.215Z,5.90
2022-11-17T09:28:07.212Z,6.10
2022-11-17T09:30:34.162Z,6.10
2022-11-17T09:33:01.196Z,6.10
2022-11-17T09:35:28.210Z,6.10
2022-11-17T09:38:00.696Z,6.20
2022-11-17T09:40:33.181Z,6.10
2022-11-17T09:43:01.971Z,6.20
2022-11-17T09:45:34.766Z,6.20
2022-11-17T09:48:40.803Z,6.20
2022-11-17T09:51:13.845Z,6.20
2022-11-17T09:53:56.648Z,6.30
2022-11-17T09:56:26.941Z,6.30
2022-11-17T09:59:01.425Z,6.30
2022-11-17T10:01:29.151Z,6.30
2022-11-17T10:03:59.147Z,6.30
2022-11-17T10:06:28.737Z,6.30
2022-11-17T10:08:58.797Z,6.30
2022-11-17T10:11:31.801Z,6.10
2022-11-17T10:14:14.152Z,6.30
2022-11-17T10:16:55.035Z,6.30
2022-11-17T10:19:31.315Z,6.30
2022-11-17T10:22:25.127Z,6.30
2022-11-17T10:24:55.447Z,6.30
2022-11-17T10:27:43.892Z,6.30
2022-11-17T10:30:21.751Z,6.20
2022-11-17T10:32:57.465Z,6.20
2022-11-17T10:35:31.652Z,6.30
2022-11-17T10:38:17.698Z,6.30
2022-11-17T10:40:45.369Z,6.30
2022-11-17T10:43:12.181Z,6.30
2022-11-17T10:45:54.430Z,6.40
2022-11-17T10:48:33.802Z,6.60
2022-11-17T10:51:09.484Z,6.30
2022-11-17T10:53:46.164Z,6.40
2022-11-17T10:56:21.528Z,6.50
2022-11-17T10:59:23.473Z,6.50
2022-11-17T11:01:51.626Z,6.50
2022-11-17T11:04:30.581Z,6.50
2022-11-17T11:07:13.023Z,6.50
2022-11-17T11:10:05.048Z,6.60
2022-11-17T11:12:52.483Z,6.60
2022-11-17T11:15:22.125Z,6.60
2022-11-17T11:17:49.868Z,6.70
2022-11-17T11:20:20.054Z,6.60
2022-11-17T11:22:59.863Z,6.60
2022-11-17T11:25:33.037Z,6.70
2022-11-17T11:28:09.890Z,6.70
2022-11-17T11:31:02.494Z,6.90
2022-11-17T11:33:39.142Z,6.80
2022-11-17T11:36:58.239Z,6.90
2022-11-17T11:40:15.941Z,6.80
2022-11-17T11:42:59.468Z,6.80
2022-11-17T11:45:46.872Z,6.90
2022-11-17T11:48:40.142Z,6.90
2022-11-17T11:51:11.822Z,6.90
2022-11-17T11:54:01.535Z,6.90
2022-11-17T11:56:38.536Z,6.90
2022-11-17T12:00:02.433Z,6.90
2022-11-17T12:02:37.660Z,6.90
2022-11-17T12:05:13.318Z,7.10
2022-11-17T12:07:43.936Z,6.90
2022-11-17T12:10:39.070Z,6.90
2022-11-17T12:13:06.378Z,6.90
2022-11-17T12:15:35.550Z,6.90
2022-11-17T12:18:29.338Z,6.90
2022-11-17T12:21:12.446Z,6.90
2022-11-17T12:24:13.664Z,6.90
2022-11-17T12:26:41.089Z,6.90
2022-11-17T12:29:20.297Z,6.90
2022-11-17T12:31:47.701Z,6.90
2022-11-17T12:34:35.338Z,6.90
2022-11-17T12:37:17.815Z,6.90
2022-11-17T12:40:41.467Z,6.90
2022-11-17T12:43:22.180Z,6.90
2022-11-17T12:45:58.240Z,6.80
2022-11-17T12:48:34.442Z,6.80
2022-11-17T12:51:10.800Z,6.80
2022-11-17T12:53:49.763Z,6.80
2022-11-17T12:56:19.440Z,6.80
2022-11-17T12:58:59.864Z,6.90
2022-11-17T13:02:03.691Z,6.90
2022-11-17T13:04:49.165Z,6.90
2022-11-17T13:07:25.525Z,6.90
2022-11-17T13:09:57.304Z,6.90
2022-11-17T13:12:30.230Z,6.90
2022-11-17T13:15:02.670Z,6.90
2022-11-17T13:17:34.663Z,6.90
2022-11-17T13:20:19.033Z,7.10
2022-11-17T13:23:06.781Z,7.00
2022-11-17T13:25:34.711Z,7.00
2022-11-17T13:28:04.838Z,7.00
2022-11-17T13:30:33.161Z,7.00
2022-11-17T13:33:03.713Z,7.10
2022-11-17T13:35:33.728Z,6.90
2022-11-17T13:38:20.193Z,7.00
2022-11-17T13:40:49.818Z,7.00
2022-11-17T13:43:22.722Z,7.00
2022-11-17T13:45:51.514Z,7.00
2022-11-17T13:48:31.645Z,7.10
2022-11-17T13:51:21.228Z,7.10
2022-11-17T13:53:54.960Z,7.10
2022-11-17T13:57:00.713Z,7.10
2022-11-17T13:59:33.891Z,7.10
2022-11-17T14:02:19.385Z,7.10
2022-11-17T14:05:14.243Z,7.10
2022-11-17T14:07:43.516Z,7.10
2022-11-17T14:10:22.744Z,7.10
2022-11-17T14:12:52.076Z,7.10
2022-11-17T14:15:25.958Z,7.10
2022-11-17T14:18:07.145Z,7.10
2022-11-17T14:20:35.683Z,7.20
2022-11-17T14:23:22.909Z,7.20
2022-11-17T14:25:51.203Z,7.20
2022-11-17T14:28:22.802Z,7.20
2022-11-17T14:30:51.880Z,7.20
2022-11-17T14:33:18.897Z,7.20
2022-11-17T14:35:48.131Z,7.20
2022-11-17T14:38:18.980Z,7.20
2022-11-17T14:40:46.488Z,7.10
2022-11-17T14:43:13.417Z,7.10
2022-11-17T14:45:40.312Z,7.30
2022-11-17T14:48:07.290Z,7.10
2022-11-17T14:50:34.269Z,7.20
2022-11-17T14:53:01.139Z,7.10
2022-11-17T14:55:28.124Z,7.10
2022-11-17T14:57:55.067Z,7.10
2022-11-17T15:00:25.130Z,7.10
2022-11-17T15:02:51.999Z,7.10
2022-11-17T15:05:22.659Z,7.00
2022-11-17T15:07:49.703Z,7.00
2022-11-17T15:10:17.072Z,7.00
2022-11-17T15:12:44.109Z,7.00
2022-11-17T15:15:11.314Z,7.00
2022-11-17T15:17:38.368Z,7.00
2022-11-17T15:20:06.747Z,7.00
2022-11-17T15:22:33.651Z,7.00
2022-11-17T15:25:00.706Z,7.00
2022-11-17T15:27:27.681Z,7.00
2022-11-17T15:29:54.528Z,7.00
2022-11-17T15:32:21.456Z,7.00
2022-11-17T15:34:48.259Z,7.10
2022-11-17T15:37:15.193Z,7.10
2022-11-17T15:39:42.028Z,7.00
2022-11-17T15:42:09.002Z,7.00
2022-11-17T15:44:35.841Z,7.00
2022-11-17T15:47:02.784Z,7.10
2022-11-17T15:49:29.686Z,7.20
2022-11-17T15:51:56.575Z,7.10
2022-11-17T15:54:23.603Z,7.10
2022-11-17T15:56:51.765Z,7.10
2022-11-17T15:59:19.370Z,7.20
2022-11-17T16:01:46.781Z,7.20
2022-11-17T16:04:17.956Z,7.20
2022-11-17T16:06:49.082Z,7.10
2022-11-17T16:09:19.015Z,7.10
2022-11-17T16:11:46.425Z,7.20
2022-11-17T16:14:15.076Z,7.20
2022-11-17T16:16:42.144Z,7.20
2022-11-17T16:19:09.144Z,7.20
2022-11-17T16:21:36.166Z,7.20
2022-11-17T16:24:03.357Z,7.20
2022-11-17T16:26:30.973Z,7.20
2022-11-17T16:29:05.899Z,7.20
2022-11-17T16:31:35.226Z,7.20
2022-11-17T16:34:13.489Z,7.20
2022-11-17T16:36:41.992Z,7.20
2022-11-17T16:39:12.424Z,7.30
2022-11-17T16:41:41.765Z,7.20
2022-11-17T16:44:11.989Z,7.20
2022-11-17T16:46:44.616Z,7.20
2022-11-17T16:49:14.294Z,7.20
2022-11-17T16:51:46.064Z,7.20
2022-11-17T16:54:13.342Z,7.20
2022-11-17T16:56:40.274Z,7.20
2022-11-17T16:59:07.426Z,7.30
2022-11-17T17:01:37.202Z,7.20
2022-11-17T17:04:06.762Z,7.30
2022-11-17T17:06:35.010Z,7.30
2022-11-17T17:09:04.821Z,7.30
2022-11-17T17:11:33.390Z,7.30
2022-11-17T17:14:03.112Z,7.30
2022-11-17T17:16:31.380Z,7.40
2022-11-17T17:19:00.722Z,7.30
2022-11-17T17:21:29.039Z,7.40
2022-11-17T17:23:56.833Z,7.40
2022-11-17T17:26:26.245Z,7.30
2022-11-17T17:28:56.497Z,7.40
2022-11-17T17:31:25.280Z,7.40
2022-11-17T17:33:52.845Z,7.40
2022-11-17T17:36:25.073Z,7.50
2022-11-17T17:38:56.221Z,7.30
2022-11-17T17:41:29.231Z,7.30
2022-11-17T17:44:04.558Z,7.30
2022-11-17T17:46:34.714Z,7.30
2022-11-17T17:49:02.329Z,7.30
2022-11-17T17:51:29.938Z,7.30
2022-11-17T17:54:00.921Z,7.30
2022-11-17T17:56:30.898Z,7.30
2022-11-17T17:58:58.087Z,7.40
2022-11-17T18:01:30.356Z,7.30
2022-11-17T18:04:04.241Z,7.30
2022-11-17T21:07:02.104Z,6.90
2022-11-17T21:09:29.050Z,7.10
2022-11-17T21:11:58.845Z,6.90
2022-11-17T21:14:26.970Z,6.90
2022-11-17T21:16:55.872Z,6.90
2022-11-17T21:19:23.318Z,7.00
2022-11-17T21:21:53.921Z,7.30
2022-11-17T21:24:21.930Z,7.00
2022-11-17T21:26:50.921Z,7.00
2022-11-17T21:29:18.084Z,7.00
2022-11-17T21:31:45.081Z,7.30
2022-11-17T21:34:16.044Z,7.00
2022-11-17T21:36:43.135Z,7.20
2022-11-17T21:39:16.598Z,7.00
2022-11-17T21:41:43.789Z,7.20
2022-11-17T21:44:12.973Z,7.00
2022-11-17T21:46:39.880Z,7.00
2022-11-17T21:49:06.769Z,7.10
2022-11-17T21:51:38.274Z,7.00
2022-11-17T21:54:07.958Z,7.00
2022-11-17T21:56:36.063Z,7.00
2022-11-17T21:59:06.455Z,6.90
2022-11-17T22:01:34.553Z,6.90
2022-11-17T22:04:02.768Z,7.10
2022-11-17T22:06:30.388Z,7.20
2022-11-17T22:08:58.769Z,7.10
2022-11-17T22:11:37.311Z,6.80
2022-11-17T22:14:10.793Z,6.80
2022-11-17T22:16:39.876Z,7.20
2022-11-17T22:19:08.058Z,6.90
2022-11-17T22:21:39.206Z,6.90
2022-11-17T22:24:07.711Z,6.90
2022-11-17T22:26:38.341Z,7.00
2022-11-17T22:29:07.710Z,7.00
2022-11-17T22:31:34.871Z,7.20
2022-11-17T22:34:01.908Z,6.90
2022-11-17T22:36:29.050Z,7.00
2022-11-17T22:38:56.030Z,6.90
2022-11-17T22:41:23.743Z,7.00
2022-11-17T22:43:55.464Z,7.00
2022-11-17T22:46:27.794Z,7.20
2022-11-17T22:48:54.939Z,7.00
2022-11-17T22:51:40.434Z,7.00
2022-11-17T22:54:08.538Z,7.00
2022-11-17T22:56:35.990Z,7.00
2022-11-17T22:59:03.096Z,6.90
2022-11-17T23:01:30.051Z,6.90
2022-11-17T23:03:58.028Z,6.90
2022-11-17T23:06:27.177Z,6.90
2022-11-17T23:08:55.550Z,6.90
2022-11-17T23:11:36.459Z,6.90
2022-11-17T23:14:06.561Z,7.10
2022-11-17T23:16:33.625Z,7.00
2022-11-17T23:19:00.566Z,6.90
2022-11-17T23:21:27.543Z,6.80
2022-11-17T23:23:54.543Z,6.80
2022-11-17T23:26:22.437Z,6.70
2022-11-17T23:28:49.374Z,6.70
2022-11-17T23:31:17.525Z,6.70
2022-11-17T23:33:46.203Z,6.60
2022-11-17T23:36:15.636Z,6.60
2022-11-17T23:38:42.758Z,6.50
2022-11-17T23:41:13.105Z,6.80
2022-11-17T23:43:40.626Z,6.50
2022-11-17T23:46:10.707Z,6.50
2022-11-17T23:48:37.858Z,6.60
2022-11-17T23:51:12.634Z,6.50
2022-11-17T23:53:39.545Z,6.40
2022-11-17T23:56:07.305Z,6.40
2022-11-17T23:58:34.248Z,6.40
